Lowell, Nebraska
Current Conditions -  °F | °C
As of 1:55 PM on Sunday 21 Dec 2014 (Local Time) from KEAR Reporting Station
Overcast Overcast  
Wind Chill: 28°   Ceiling: 300
Heat Index: 37°   Visibility: 2mi
Dew Point: 36°   Wind: 16mph
Humidity: 93%   Direction: 150°SSE
Pressure: 29.63"   Gusts: NA
Location:  40.7385°N, 98.8928°W
Report Text: KEAR 211955Z 15014KT 2SM OVC003 03/02 A2963 RMK AO1
Loading
Personal Weather Stations






























Interactive Weather Map New forecast layout! Learn more

10-Day Weather Forecast

Advertisements
Track Severe Weather on mobile